sensor_id;sensor_type;location;lat;lon;timestamp;pressure;altitude;pressure_sealevel;temperature;humidity
11053;BME280;55230;42.602;23.470;2023-07-09T00:01:28;93987.72;;;17.25;75.50
11053;BME280;55230;42.602;23.470;2023-07-09T00:03:55;93978.78;;;17.24;76.26
11053;BME280;55230;42.602;23.470;2023-07-09T00:06:21;93986.16;;;17.18;76.59
11053;BME280;55230;42.602;23.470;2023-07-09T00:08:48;93975.25;;;17.18;76.21
11053;BME280;55230;42.602;23.470;2023-07-09T00:11:15;93973.75;;;17.17;75.61
11053;BME280;55230;42.602;23.470;2023-07-09T00:13:42;93974.03;;;17.19;75.21
11053;BME280;55230;42.602;23.470;2023-07-09T00:16:12;93974.31;;;17.21;75.35
11053;BME280;55230;42.602;23.470;2023-07-09T00:18:39;93967.34;;;17.20;74.50
11053;BME280;55230;42.602;23.470;2023-07-09T00:21:06;93968.56;;;17.19;75.46
11053;BME280;55230;42.602;23.470;2023-07-09T00:23:32;93960.19;;;17.23;74.86
11053;BME280;55230;42.602;23.470;2023-07-09T00:25:59;93963.41;;;17.21;75.01
11053;BME280;55230;42.602;23.470;2023-07-09T00:28:28;93960.41;;;17.19;74.25
11053;BME280;55230;42.602;23.470;2023-07-09T00:30:54;93955.22;;;17.21;74.23
11053;BME280;55230;42.602;23.470;2023-07-09T00:33:23;93962.44;;;17.24;74.13
11053;BME280;55230;42.602;23.470;2023-07-09T00:35:56;93956.97;;;17.24;73.50
11053;BME280;55230;42.602;23.470;2023-07-09T00:38:23;93950.56;;;17.27;72.96
11053;BME280;55230;42.602;23.470;2023-07-09T00:40:58;93958.75;;;17.27;73.04
11053;BME280;55230;42.602;23.470;2023-07-09T00:43:27;93953.06;;;17.25;73.08
11053;BME280;55230;42.602;23.470;2023-07-09T00:46:14;93953.97;;;17.22;73.29
11053;BME280;55230;42.602;23.470;2023-07-09T00:48:43;93956.22;;;17.24;73.67
11053;BME280;55230;42.602;23.470;2023-07-09T00:51:10;93960.00;;;17.26;72.85
11053;BME280;55230;42.602;23.470;2023-07-09T00:53:38;93957.75;;;17.25;73.20
11053;BME280;55230;42.602;23.470;2023-07-09T00:56:11;93956.91;;;17.19;73.31
11053;BME280;55230;42.602;23.470;2023-07-09T00:58:40;93951.41;;;17.13;74.20
11053;BME280;55230;42.602;23.470;2023-07-09T01:01:09;93955.34;;;17.12;74.44
11053;BME280;55230;42.602;23.470;2023-07-09T01:03:39;93957.97;;;17.01;75.04
11053;BME280;55230;42.602;23.470;2023-07-09T01:06:09;93955.22;;;17.01;74.80
11053;BME280;55230;42.602;23.470;2023-07-09T01:08:36;93952.50;;;17.01;74.74
11053;BME280;55230;42.602;23.470;2023-07-09T01:11:03;93948.28;;;17.00;74.53
11053;BME280;55230;42.602;23.470;2023-07-09T01:13:33;93951.94;;;16.97;74.25
11053;BME280;55230;42.602;23.470;2023-07-09T01:16:00;93950.63;;;16.93;75.42
11053;BME280;55230;42.602;23.470;2023-07-09T01:18:27;93951.13;;;16.91;75.95
11053;BME280;55230;42.602;23.470;2023-07-09T01:20:58;93943.91;;;16.88;76.16
11053;BME280;55230;42.602;23.470;2023-07-09T01:23:26;93950.72;;;16.78;76.65
11053;BME280;55230;42.602;23.470;2023-07-09T01:25:52;93950.03;;;16.83;75.22
11053;BME280;55230;42.602;23.470;2023-07-09T01:28:19;93941.06;;;16.77;75.83
11053;BME280;55230;42.602;23.470;2023-07-09T01:30:46;93943.28;;;16.79;75.81
11053;BME280;55230;42.602;23.470;2023-07-09T01:33:18;93935.31;;;16.75;76.47
11053;BME280;55230;42.602;23.470;2023-07-09T01:35:44;93931.09;;;16.74;76.56
11053;BME280;55230;42.602;23.470;2023-07-09T01:38:12;93931.47;;;16.67;77.87
11053;BME280;55230;42.602;23.470;2023-07-09T01:40:41;93930.94;;;16.63;77.71
11053;BME280;55230;42.602;23.470;2023-07-09T01:43:08;93931.63;;;16.58;77.69
11053;BME280;55230;42.602;23.470;2023-07-09T01:45:35;93942.44;;;16.53;78.12
11053;BME280;55230;42.602;23.470;2023-07-09T01:48:02;93944.31;;;16.47;79.38
11053;BME280;55230;42.602;23.470;2023-07-09T01:50:29;93947.47;;;16.45;78.26
11053;BME280;55230;42.602;23.470;2023-07-09T01:52:55;93946.47;;;16.43;78.03
11053;BME280;55230;42.602;23.470;2023-07-09T01:55:24;93944.38;;;16.38;79.21
11053;BME280;55230;42.602;23.470;2023-07-09T01:57:51;93947.06;;;16.32;79.45
11053;BME280;55230;42.602;23.470;2023-07-09T02:00:17;93945.53;;;16.31;79.77
11053;BME280;55230;42.602;23.470;2023-07-09T02:02:44;93948.38;;;16.22;81.01
11053;BME280;55230;42.602;23.470;2023-07-09T02:05:11;93948.28;;;16.16;81.74
11053;BME280;55230;42.602;23.470;2023-07-09T02:07:38;93945.47;;;16.11;81.21
11053;BME280;55230;42.602;23.470;2023-07-09T02:10:05;93941.53;;;16.12;80.51
11053;BME280;55230;42.602;23.470;2023-07-09T02:12:33;93955.13;;;16.12;81.05
11053;BME280;55230;42.602;23.470;2023-07-09T02:15:00;93959.06;;;15.96;81.76
11053;BME280;55230;42.602;23.470;2023-07-09T02:17:27;93962.56;;;15.68;85.52
11053;BME280;55230;42.602;23.470;2023-07-09T02:19:53;93964.97;;;15.66;85.54
11053;BME280;55230;42.602;23.470;2023-07-09T02:22:19;93959.53;;;15.66;86.01
11053;BME280;55230;42.602;23.470;2023-07-09T02:24:46;93959.72;;;15.62;86.51
11053;BME280;55230;42.602;23.470;2023-07-09T02:27:15;93966.00;;;15.54;87.32
11053;BME280;55230;42.602;23.470;2023-07-09T02:29:43;93961.22;;;15.49;88.20
11053;BME280;55230;42.602;23.470;2023-07-09T02:32:10;93963.69;;;15.38;89.61
11053;BME280;55230;42.602;23.470;2023-07-09T02:34:39;93969.38;;;15.25;91.16
11053;BME280;55230;42.602;23.470;2023-07-09T02:37:06;93971.06;;;15.23;90.58
11053;BME280;55230;42.602;23.470;2023-07-09T02:39:32;93971.06;;;15.23;90.00
11053;BME280;55230;42.602;23.470;2023-07-09T02:41:58;93973.78;;;15.23;91.22
11053;BME280;55230;42.602;23.470;2023-07-09T02:44:25;93978.91;;;15.21;91.61
11053;BME280;55230;42.602;23.470;2023-07-09T02:46:53;93974.72;;;15.20;91.25
11053;BME280;55230;42.602;23.470;2023-07-09T02:49:19;93974.72;;;15.20;91.89
11053;BME280;55230;42.602;23.470;2023-07-09T02:51:46;93978.91;;;15.21;92.21
11053;BME280;55230;42.602;23.470;2023-07-09T02:54:12;93981.63;;;15.21;91.97
11053;BME280;55230;42.602;23.470;2023-07-09T02:56:39;93981.94;;;15.23;91.62
11053;BME280;55230;42.602;23.470;2023-07-09T02:59:05;93982.69;;;15.23;92.28
11053;BME280;55230;42.602;23.470;2023-07-09T03:01:32;93982.50;;;15.27;92.24
11053;BME280;55230;42.602;23.470;2023-07-09T03:04:00;93985.88;;;15.22;92.76
11053;BME280;55230;42.602;23.470;2023-07-09T03:06:28;93993.38;;;15.27;91.48
11053;BME280;55230;42.602;23.470;2023-07-09T03:08:55;93989.84;;;15.35;91.54
11053;BME280;55230;42.602;23.470;2023-07-09T03:11:21;93987.88;;;15.36;91.21
11053;BME280;55230;42.602;23.470;2023-07-09T03:13:48;93995.50;;;15.46;89.84
11053;BME280;55230;42.602;23.470;2023-07-09T03:16:15;93991.19;;;15.40;90.21
11053;BME280;55230;42.602;23.470;2023-07-09T03:18:41;93995.75;;;15.34;91.00
11053;BME280;55230;42.602;23.470;2023-07-09T03:21:09;94003.84;;;15.43;90.99
11053;BME280;55230;42.602;23.470;2023-07-09T03:23:36;94001.41;;;15.45;91.50
11053;BME280;55230;42.602;23.470;2023-07-09T03:26:02;94002.28;;;15.65;91.27
11053;BME280;55230;42.602;23.470;2023-07-09T03:28:30;94002.59;;;15.82;90.92
11053;BME280;55230;42.602;23.470;2023-07-09T03:30:57;94005.78;;;15.95;90.03
11053;BME280;55230;42.602;23.470;2023-07-09T03:33:24;93998.19;;;16.13;90.06
11053;BME280;55230;42.602;23.470;2023-07-09T03:35:50;93990.69;;;16.23;86.57
11053;BME280;55230;42.602;23.470;2023-07-09T03:38:18;93997.06;;;16.49;85.24
11053;BME280;55230;42.602;23.470;2023-07-09T03:40:45;93994.97;;;16.73;83.83
11053;BME280;55230;42.602;23.470;2023-07-09T03:43:12;94000.34;;;16.88;82.25
11053;BME280;55230;42.602;23.470;2023-07-09T03:45:38;93999.59;;;17.22;80.19
11053;BME280;55230;42.602;23.470;2023-07-09T03:48:05;93996.94;;;17.48;78.34
11053;BME280;55230;42.602;23.470;2023-07-09T03:50:32;94002.88;;;17.92;75.27
11053;BME280;55230;42.602;23.470;2023-07-09T03:52:58;93998.63;;;18.73;71.04
11053;BME280;55230;42.602;23.470;2023-07-09T03:55:27;94002.44;;;19.29;67.84
11053;BME280;55230;42.602;23.470;2023-07-09T03:57:53;94003.53;;;20.34;63.01
11053;BME280;55230;42.602;23.470;2023-07-09T04:00:20;94008.75;;;21.04;57.80
11053;BME280;55230;42.602;23.470;2023-07-09T04:02:46;94009.03;;;21.74;55.54
11053;BME280;55230;42.602;23.470;2023-07-09T04:05:13;94011.09;;;22.15;53.58
11053;BME280;55230;42.602;23.470;2023-07-09T04:07:40;94021.56;;;23.16;50.75
11053;BME280;55230;42.602;23.470;2023-07-09T04:10:07;94017.88;;;23.62;49.33
11053;BME280;55230;42.602;23.470;2023-07-09T04:12:35;94019.97;;;23.26;49.90
11053;BME280;55230;42.602;23.470;2023-07-09T04:15:02;94021.31;;;23.86;47.97
11053;BME280;55230;42.602;23.470;2023-07-09T04:17:28;94020.28;;;23.47;47.74
11053;BME280;55230;42.602;23.470;2023-07-09T04:19:55;94021.97;;;23.31;49.28
11053;BME280;55230;42.602;23.470;2023-07-09T04:22:21;94023.91;;;23.79;48.72
11053;BME280;55230;42.602;23.470;2023-07-09T04:24:48;94036.13;;;22.81;51.29
11053;BME280;55230;42.602;23.470;2023-07-09T04:27:15;94037.91;;;23.38;51.82
11053;BME280;55230;42.602;23.470;2023-07-09T04:29:43;94031.03;;;23.21;51.48
11053;BME280;55230;42.602;23.470;2023-07-09T04:32:11;94038.03;;;22.92;51.13
11053;BME280;55230;42.602;23.470;2023-07-09T04:34:38;94037.09;;;22.49;53.50
11053;BME280;55230;42.602;23.470;2023-07-09T04:37:05;94032.44;;;23.57;49.56
11053;BME280;55230;42.602;23.470;2023-07-09T04:39:32;94038.69;;;23.33;51.88
11053;BME280;55230;42.602;23.470;2023-07-09T04:41:58;94046.00;;;22.96;51.21
11053;BME280;55230;42.602;23.470;2023-07-09T04:44:25;94050.28;;;23.50;49.17
11053;BME280;55230;42.602;23.470;2023-07-09T04:46:53;94047.72;;;24.00;47.79
11053;BME280;55230;42.602;23.470;2023-07-09T04:49:19;94046.50;;;23.29;49.99
11053;BME280;55230;42.602;23.470;2023-07-09T04:51:46;94043.25;;;22.96;50.79
11053;BME280;55230;42.602;23.470;2023-07-09T04:54:12;94045.44;;;23.80;48.29
11053;BME280;55230;42.602;23.470;2023-07-09T04:56:40;94044.28;;;24.13;48.47
11053;BME280;55230;42.602;23.470;2023-07-09T04:59:09;94049.53;;;25.17;45.87
11053;BME280;55230;42.602;23.470;2023-07-09T05:01:35;94043.44;;;25.63;45.09
11053;BME280;55230;42.602;23.470;2023-07-09T05:04:03;94039.63;;;24.77;45.48
11053;BME280;55230;42.602;23.470;2023-07-09T05:06:30;94042.34;;;23.65;47.87
11053;BME280;55230;42.602;23.470;2023-07-09T05:08:56;94041.22;;;23.55;47.83
11053;BME280;55230;42.602;23.470;2023-07-09T05:11:23;94044.09;;;22.50;51.21
11053;BME280;55230;42.602;23.470;2023-07-09T05:13:49;94046.22;;;22.33;51.10
11053;BME280;55230;42.602;23.470;2023-07-09T05:16:16;94043.75;;;21.66;52.20
11053;BME280;55230;42.602;23.470;2023-07-09T05:18:44;94045.06;;;21.43;54.39
11053;BME280;55230;42.602;23.470;2023-07-09T05:21:12;94051.09;;;21.25;54.69
11053;BME280;55230;42.602;23.470;2023-07-09T05:23:39;94050.84;;;21.34;55.98
11053;BME280;55230;42.602;23.470;2023-07-09T05:26:05;94050.38;;;20.58;61.79
11053;BME280;55230;42.602;23.470;2023-07-09T05:28:32;94054.09;;;20.39;64.67
11053;BME280;55230;42.602;23.470;2023-07-09T05:30:59;94061.72;;;20.02;69.81
11053;BME280;55230;42.602;23.470;2023-07-09T05:33:25;94055.03;;;19.49;71.46
11053;BME280;55230;42.602;23.470;2023-07-09T05:35:52;94052.69;;;19.90;71.91
11053;BME280;55230;42.602;23.470;2023-07-09T05:38:19;94056.00;;;20.11;66.73
11053;BME280;55230;42.602;23.470;2023-07-09T05:40:46;94048.34;;;20.31;65.32
11053;BME280;55230;42.602;23.470;2023-07-09T05:43:13;94048.81;;;20.24;65.03
11053;BME280;55230;42.602;23.470;2023-07-09T05:45:40;94052.88;;;20.56;60.91
11053;BME280;55230;42.602;23.470;2023-07-09T05:48:07;94057.59;;;20.61;61.62
11053;BME280;55230;42.602;23.470;2023-07-09T05:50:34;94058.09;;;20.71;62.65
11053;BME280;55230;42.602;23.470;2023-07-09T05:53:01;94070.09;;;21.01;62.21
11053;BME280;55230;42.602;23.470;2023-07-09T05:55:29;94067.56;;;21.25;61.61
11053;BME280;55230;42.602;23.470;2023-07-09T05:57:55;94052.31;;;21.46;60.26
11053;BME280;55230;42.602;23.470;2023-07-09T06:00:22;94055.47;;;21.72;58.07
11053;BME280;55230;42.602;23.470;2023-07-09T06:02:48;94047.38;;;22.02;58.81
11053;BME280;55230;42.602;23.470;2023-07-09T06:05:15;94053.16;;;22.39;56.25
11053;BME280;55230;42.602;23.470;2023-07-09T06:07:41;94043.44;;;22.73;55.79
11053;BME280;55230;42.602;23.470;2023-07-09T06:10:08;94049.75;;;22.28;54.71
11053;BME280;55230;42.602;23.470;2023-07-09T06:12:37;94040.66;;;22.38;56.53
11053;BME280;55230;42.602;23.470;2023-07-09T06:15:04;94041.50;;;22.28;56.14
11053;BME280;55230;42.602;23.470;2023-07-09T06:17:30;94047.06;;;22.11;58.87
11053;BME280;55230;42.602;23.470;2023-07-09T06:19:57;94049.72;;;21.76;58.11
11053;BME280;55230;42.602;23.470;2023-07-09T06:22:23;94038.94;;;21.95;60.22
11053;BME280;55230;42.602;23.470;2023-07-09T06:24:50;94042.72;;;21.81;58.69
11053;BME280;55230;42.602;23.470;2023-07-09T06:27:16;94046.94;;;21.93;61.42
11053;BME280;55230;42.602;23.470;2023-07-09T06:29:44;94042.88;;;22.05;59.39
11053;BME280;55230;42.602;23.470;2023-07-09T06:32:11;94039.31;;;21.52;59.67
11053;BME280;55230;42.602;23.470;2023-07-09T06:34:37;94050.34;;;21.30;59.64
11053;BME280;55230;42.602;23.470;2023-07-09T06:37:04;94047.09;;;21.37;61.30
11053;BME280;55230;42.602;23.470;2023-07-09T06:39:31;94046.25;;;21.81;60.27
11053;BME280;55230;42.602;23.470;2023-07-09T06:41:57;94043.34;;;21.40;58.07
11053;BME280;55230;42.602;23.470;2023-07-09T06:44:24;94053.84;;;21.14;58.61
11053;BME280;55230;42.602;23.470;2023-07-09T06:46:52;94045.38;;;21.23;63.11
11053;BME280;55230;42.602;23.470;2023-07-09T06:49:19;94052.59;;;21.32;59.57
11053;BME280;55230;42.602;23.470;2023-07-09T06:51:45;94036.81;;;21.54;60.00
11053;BME280;55230;42.602;23.470;2023-07-09T06:54:12;94040.50;;;21.62;61.34
11053;BME280;55230;42.602;23.470;2023-07-09T06:56:40;94036.38;;;21.39;58.08
11053;BME280;55230;42.602;23.470;2023-07-09T06:59:07;94045.16;;;20.99;59.05
11053;BME280;55230;42.602;23.470;2023-07-09T07:01:33;94044.59;;;21.39;58.68
11053;BME280;55230;42.602;23.470;2023-07-09T07:04:01;94050.28;;;21.52;58.21
11053;BME280;55230;42.602;23.470;2023-07-09T07:06:28;94042.28;;;21.54;59.42
11053;BME280;55230;42.602;23.470;2023-07-09T07:08:56;94050.09;;;21.39;55.97
11053;BME280;55230;42.602;23.470;2023-07-09T07:11:22;94049.59;;;21.35;56.38
11053;BME280;55230;42.602;23.470;2023-07-09T07:13:50;94043.31;;;21.57;56.13
11053;BME280;55230;42.602;23.470;2023-07-09T07:16:17;94050.44;;;21.76;54.68
11053;BME280;55230;42.602;23.470;2023-07-09T07:18:44;94038.50;;;21.68;55.75
11053;BME280;55230;42.602;23.470;2023-07-09T07:21:12;94040.00;;;21.81;56.22
11053;BME280;55230;42.602;23.470;2023-07-09T07:23:38;94043.41;;;21.98;54.06
11053;BME280;55230;42.602;23.470;2023-07-09T07:26:05;94041.72;;;21.78;55.62
11053;BME280;55230;42.602;23.470;2023-07-09T07:28:33;94038.44;;;21.91;55.07
11053;BME280;55230;42.602;23.470;2023-07-09T07:31:00;94030.69;;;21.95;55.74
11053;BME280;55230;42.602;23.470;2023-07-09T07:33:27;94034.75;;;21.83;56.05
11053;BME280;55230;42.602;23.470;2023-07-09T07:35:53;94027.34;;;22.13;55.14
11053;BME280;55230;42.602;23.470;2023-07-09T07:38:21;94029.63;;;22.44;52.61
11053;BME280;55230;42.602;23.470;2023-07-09T07:40:48;94027.84;;;22.52;51.51
11053;BME280;55230;42.602;23.470;2023-07-09T07:43:15;94021.66;;;22.40;52.58
11053;BME280;55230;42.602;23.470;2023-07-09T07:45:41;94026.88;;;22.84;51.94
11053;BME280;55230;42.602;23.470;2023-07-09T07:48:08;94027.81;;;22.57;50.40
11053;BME280;55230;42.602;23.470;2023-07-09T07:50:34;94020.81;;;22.62;51.56
11053;BME280;55230;42.602;23.470;2023-07-09T07:53:01;94025.66;;;22.45;52.11
11053;BME280;55230;42.602;23.470;2023-07-09T07:55:29;94025.91;;;22.41;52.82
11053;BME280;55230;42.602;23.470;2023-07-09T07:57:55;94032.16;;;22.42;51.12
11053;BME280;55230;42.602;23.470;2023-07-09T08:00:22;94024.09;;;22.55;52.12
11053;BME280;55230;42.602;23.470;2023-07-09T08:02:48;94031.00;;;22.67;50.22
11053;BME280;55230;42.602;23.470;2023-07-09T08:05:15;94024.09;;;23.14;48.64
11053;BME280;55230;42.602;23.470;2023-07-09T08:07:42;94025.25;;;23.00;50.04
11053;BME280;55230;42.602;23.470;2023-07-09T08:10:09;94028.81;;;22.89;50.75
11053;BME280;55230;42.602;23.470;2023-07-09T08:12:37;94024.75;;;22.96;51.20
11053;BME280;55230;42.602;23.470;2023-07-09T08:15:04;94019.03;;;23.18;49.86
11053;BME280;55230;42.602;23.470;2023-07-09T08:17:31;94018.13;;;23.40;51.44
11053;BME280;55230;42.602;23.470;2023-07-09T08:19:58;94013.72;;;23.92;50.57
11053;BME280;55230;42.602;23.470;2023-07-09T08:22:24;94014.03;;;24.45;49.28
11053;BME280;55230;42.602;23.470;2023-07-09T08:24:51;94012.22;;;24.66;48.88
11053;BME280;55230;42.602;23.470;2023-07-09T08:27:17;94012.72;;;24.33;45.97
11053;BME280;55230;42.602;23.470;2023-07-09T08:29:46;94018.59;;;24.24;49.10
11053;BME280;55230;42.602;23.470;2023-07-09T08:32:13;94014.59;;;23.63;47.35
11053;BME280;55230;42.602;23.470;2023-07-09T08:34:40;94014.59;;;23.63;48.46
11053;BME280;55230;42.602;23.470;2023-07-09T08:37:07;94010.75;;;23.90;48.30
11053;BME280;55230;42.602;23.470;2023-07-09T08:39:34;94014.28;;;23.67;49.06
11053;BME280;55230;42.602;23.470;2023-07-09T08:42:02;94008.09;;;23.61;49.15
11053;BME280;55230;42.602;23.470;2023-07-09T08:47:18;94007.91;;;23.77;49.66
11053;BME280;55230;42.602;23.470;2023-07-09T08:49:48;94014.22;;;24.15;47.62
11053;BME280;55230;42.602;23.470;2023-07-09T08:55:00;94016.94;;;23.78;47.26
11053;BME280;55230;42.602;23.470;2023-07-09T08:57:29;94002.22;;;23.70;48.80
11053;BME280;55230;42.602;23.470;2023-07-09T09:00:00;94017.63;;;24.02;48.60
11053;BME280;55230;42.602;23.470;2023-07-09T09:02:31;94007.38;;;24.72;50.47
11053;BME280;55230;42.602;23.470;2023-07-09T09:04:59;94018.00;;;25.13;45.72
11053;BME280;55230;42.602;23.470;2023-07-09T09:07:29;94015.81;;;24.61;46.20
11053;BME280;55230;42.602;23.470;2023-07-09T09:10:00;94013.44;;;24.52;47.54
11053;BME280;55230;42.602;23.470;2023-07-09T09:12:28;94019.47;;;24.50;48.09
11053;BME280;55230;42.602;23.470;2023-07-09T09:14:58;94016.94;;;24.71;45.90
11053;BME280;55230;42.602;23.470;2023-07-09T09:17:26;94018.00;;;24.81;46.99
11053;BME280;55230;42.602;23.470;2023-07-09T09:19:56;94014.66;;;25.01;46.84
11053;BME280;55230;42.602;23.470;2023-07-09T09:22:27;94013.09;;;25.32;46.18
11053;BME280;55230;42.602;23.470;2023-07-09T09:24:57;94012.19;;;25.42;44.51
11053;BME280;55230;42.602;23.470;2023-07-09T09:27:24;94012.16;;;25.16;46.17
11053;BME280;55230;42.602;23.470;2023-07-09T09:29:51;94015.81;;;25.37;46.80
11053;BME280;55230;42.602;23.470;2023-07-09T09:32:20;94015.34;;;25.20;45.92
11053;BME280;55230;42.602;23.470;2023-07-09T09:34:48;94008.06;;;25.62;44.94
11053;BME280;55230;42.602;23.470;2023-07-09T09:37:18;94008.81;;;25.36;46.78
11053;BME280;55230;42.602;23.470;2023-07-09T09:39:49;94006.78;;;25.37;46.68
11053;BME280;55230;42.602;23.470;2023-07-09T09:42:15;94009.16;;;24.51;47.51
11053;BME280;55230;42.602;23.470;2023-07-09T09:44:43;94003.38;;;24.36;47.85
11053;BME280;55230;42.602;23.470;2023-07-09T09:47:10;94002.16;;;25.00;47.53
11053;BME280;55230;42.602;23.470;2023-07-09T09:49:39;94001.75;;;25.22;45.83
11053;BME280;55230;42.602;23.470;2023-07-09T09:52:06;93999.03;;;25.61;45.80
11053;BME280;55230;42.602;23.470;2023-07-09T09:54:39;93987.34;;;25.81;44.25
11053;BME280;55230;42.602;23.470;2023-07-09T09:57:13;93984.44;;;26.00;48.73
11053;BME280;55230;42.602;23.470;2023-07-09T09:59:41;93990.09;;;25.68;46.02
11053;BME280;55230;42.602;23.470;2023-07-09T10:02:13;93988.16;;;25.24;45.50
11053;BME280;55230;42.602;23.470;2023-07-09T10:04:42;93986.72;;;25.36;46.51
11053;BME280;55230;42.602;23.470;2023-07-09T10:07:10;93985.44;;;25.63;45.03
11053;BME280;55230;42.602;23.470;2023-07-09T10:09:45;93992.00;;;25.34;45.21
11053;BME280;55230;42.602;23.470;2023-07-09T10:12:14;93984.81;;;25.57;45.33
11053;BME280;55230;42.602;23.470;2023-07-09T10:14:45;93983.94;;;25.49;47.30
11053;BME280;55230;42.602;23.470;2023-07-09T10:17:18;93980.81;;;25.27;46.12
11053;BME280;55230;42.602;23.470;2023-07-09T10:19:49;93982.69;;;25.50;46.44
11053;BME280;55230;42.602;23.470;2023-07-09T10:27:57;93974.28;;;25.56;44.51
11053;BME280;55230;42.602;23.470;2023-07-09T10:30:35;93980.94;;;25.34;45.41
11053;BME280;55230;42.602;23.470;2023-07-09T10:33:07;93982.41;;;25.35;45.53
11053;BME280;55230;42.602;23.470;2023-07-09T10:35:37;93970.34;;;25.64;43.12
11053;BME280;55230;42.602;23.470;2023-07-09T10:38:07;93970.03;;;25.68;43.50
11053;BME280;55230;42.602;23.470;2023-07-09T10:40:38;93963.06;;;26.00;45.50
11053;BME280;55230;42.602;23.470;2023-07-09T10:43:06;93968.09;;;25.76;44.64
11053;BME280;55230;42.602;23.470;2023-07-09T10:45:38;93960.78;;;25.65;43.74
11053;BME280;55230;42.602;23.470;2023-07-09T10:48:07;93962.22;;;25.92;42.60
11053;BME280;55230;42.602;23.470;2023-07-09T10:50:36;93959.16;;;25.70;44.32
11053;BME280;55230;42.602;23.470;2023-07-09T10:53:05;93971.19;;;25.46;42.77
11053;BME280;55230;42.602;23.470;2023-07-09T10:55:38;93964.84;;;25.64;42.22
11053;BME280;55230;42.602;23.470;2023-07-09T10:58:11;93958.00;;;25.78;43.35
11053;BME280;55230;42.602;23.470;2023-07-09T11:00:44;93961.81;;;25.75;41.85
11053;BME280;55230;42.602;23.470;2023-07-09T11:03:13;93962.31;;;26.00;41.40
11053;BME280;55230;42.602;23.470;2023-07-09T11:05:41;93959.50;;;25.79;42.82
11053;BME280;55230;42.602;23.470;2023-07-09T11:08:09;93963.28;;;25.89;42.34
11053;BME280;55230;42.602;23.470;2023-07-09T11:10:39;93964.03;;;25.90;41.37
11053;BME280;55230;42.602;23.470;2023-07-09T11:13:09;93959.44;;;25.92;41.19
11053;BME280;55230;42.602;23.470;2023-07-09T11:15:37;93961.03;;;26.01;42.30
11053;BME280;55230;42.602;23.470;2023-07-09T11:18:05;93960.09;;;25.98;42.10
11053;BME280;55230;42.602;23.470;2023-07-09T11:20:35;93947.84;;;25.94;41.03
11053;BME280;55230;42.602;23.470;2023-07-09T11:23:03;93959.81;;;25.76;42.05
11053;BME280;55230;42.602;23.470;2023-07-09T11:25:31;93957.75;;;25.89;41.72
11053;BME280;55230;42.602;23.470;2023-07-09T11:28:03;93956.94;;;25.81;41.24
11053;BME280;55230;42.602;23.470;2023-07-09T11:30:30;93956.28;;;25.88;40.32
11053;BME280;55230;42.602;23.470;2023-07-09T11:32:58;93962.31;;;26.00;40.97
11053;BME280;55230;42.602;23.470;2023-07-09T11:35:26;93958.63;;;26.31;40.62
11053;BME280;55230;42.602;23.470;2023-07-09T11:37:53;93952.44;;;26.04;40.34
11053;BME280;55230;42.602;23.470;2023-07-09T11:40:20;93954.97;;;26.02;39.53
11053;BME280;55230;42.602;23.470;2023-07-09T11:42:48;93952.97;;;26.03;39.02
11053;BME280;55230;42.602;23.470;2023-07-09T11:45:17;93944.13;;;26.17;39.39
11053;BME280;55230;42.602;23.470;2023-07-09T11:47:47;93942.00;;;25.97;39.83
11053;BME280;55230;42.602;23.470;2023-07-09T11:50:20;93942.41;;;25.68;40.92
11053;BME280;55230;42.602;23.470;2023-07-09T11:52:49;93941.47;;;26.12;40.14
11053;BME280;55230;42.602;23.470;2023-07-09T11:55:22;93942.56;;;26.30;39.16
11053;BME280;55230;42.602;23.470;2023-07-09T11:57:52;93938.47;;;26.44;39.06
11053;BME280;55230;42.602;23.470;2023-07-09T12:00:20;93944.81;;;26.31;39.22
11053;BME280;55230;42.602;23.470;2023-07-09T12:02:47;93937.59;;;26.28;38.64
11053;BME280;55230;42.602;23.470;2023-07-09T12:05:13;93932.94;;;26.23;39.67
11053;BME280;55230;42.602;23.470;2023-07-09T12:07:44;93927.75;;;26.61;41.80
11053;BME280;55230;42.602;23.470;2023-07-09T12:10:17;93930.06;;;26.90;39.34
11053;BME280;55230;42.602;23.470;2023-07-09T12:12:44;93926.09;;;26.78;38.41
11053;BME280;55230;42.602;23.470;2023-07-09T12:15:12;93926.09;;;27.06;39.49
11053;BME280;55230;42.602;23.470;2023-07-09T12:17:43;93930.94;;;27.13;39.09
11053;BME280;55230;42.602;23.470;2023-07-09T12:20:18;93936.91;;;27.25;40.43
11053;BME280;55230;42.602;23.470;2023-07-09T12:22:44;93913.97;;;27.17;39.46
11053;BME280;55230;42.602;23.470;2023-07-09T12:25:17;93922.44;;;27.11;38.91
11053;BME280;55230;42.602;23.470;2023-07-09T12:27:44;93921.41;;;27.22;39.20
11053;BME280;55230;42.602;23.470;2023-07-09T12:30:11;93927.06;;;27.37;39.49
11053;BME280;55230;42.602;23.470;2023-07-09T12:32:44;93923.97;;;27.20;39.16
11053;BME280;55230;42.602;23.470;2023-07-09T12:35:12;93918.06;;;27.23;38.69
11053;BME280;55230;42.602;23.470;2023-07-09T12:37:38;93924.44;;;26.62;39.93
11053;BME280;55230;42.602;23.470;2023-07-09T12:40:08;93920.28;;;26.69;40.86
11053;BME280;55230;42.602;23.470;2023-07-09T12:42:38;93913.97;;;27.17;41.43
11053;BME280;55230;42.602;23.470;2023-07-09T12:45:05;93913.50;;;27.26;39.50
11053;BME280;55230;42.602;23.470;2023-07-09T12:47:31;93905.88;;;26.91;39.79
11053;BME280;55230;42.602;23.470;2023-07-09T12:50:03;93901.53;;;27.03;40.84
11053;BME280;55230;42.602;23.470;2023-07-09T12:52:44;93902.50;;;26.85;39.94
11053;BME280;55230;42.602;23.470;2023-07-09T12:55:19;93900.91;;;26.69;38.85
11053;BME280;55230;42.602;23.470;2023-07-09T12:57:46;93894.16;;;26.57;39.52
11053;BME280;55230;42.602;23.470;2023-07-09T13:00:13;93893.91;;;26.96;40.04
11053;BME280;55230;42.602;23.470;2023-07-09T13:02:40;93886.00;;;27.00;40.64
11053;BME280;55230;42.602;23.470;2023-07-09T13:05:18;93893.47;;;27.41;41.25